createdAt,value
2023-03-30T00:00:01.056Z,57.39
2023-03-30T00:02:38.833Z,57.48
2023-03-30T00:05:07.687Z,57.65
2023-03-30T00:07:38.536Z,58.02
2023-03-30T00:10:07.118Z,58.01
2023-03-30T00:12:36.997Z,58.15
2023-03-30T00:15:07.223Z,58.19
2023-03-30T00:17:44.590Z,58.20
2023-03-30T00:20:14.117Z,58.22
2023-03-30T00:22:50.170Z,57.98
2023-03-30T00:25:18.575Z,58.03
2023-03-30T00:27:48.921Z,58.01
2023-03-30T00:30:18.250Z,58.11
2023-03-30T00:32:50.805Z,57.77
2023-03-30T00:35:21.319Z,57.98
2023-03-30T00:37:49.719Z,58.02
2023-03-30T00:40:21.362Z,57.97
2023-03-30T00:43:20.012Z,57.99
2023-03-30T00:45:54.209Z,58.23
2023-03-30T00:48:24.678Z,58.24
2023-03-30T00:50:52.815Z,58.15
2023-03-30T00:53:25.549Z,57.96
2023-03-30T00:55:54.730Z,58.16
2023-03-30T00:58:23.303Z,58.19
2023-03-30T01:00:58.315Z,58.54
2023-03-30T01:03:32.646Z,58.68
2023-03-30T01:06:03.149Z,58.92
2023-03-30T01:08:34.378Z,58.61
2023-03-30T01:11:03.649Z,58.70
2023-03-30T01:13:34.543Z,58.57
2023-03-30T01:16:30.422Z,58.55
2023-03-30T01:19:32.456Z,58.60
2023-03-30T01:22:12.961Z,58.82
2023-03-30T01:25:03.090Z,59.22
2023-03-30T01:27:46.195Z,59.21
2023-03-30T01:30:18.306Z,58.98
2023-03-30T01:33:31.608Z,59.05
2023-03-30T01:36:20.069Z,58.93
2023-03-30T01:39:11.583Z,58.83
2023-03-30T01:42:00.151Z,58.82
2023-03-30T01:44:40.939Z,58.98
2023-03-30T01:47:17.042Z,59.17
2023-03-30T01:49:50.107Z,59.29
2023-03-30T01:52:44.777Z,59.20
2023-03-30T01:55:42.492Z,59.16
2023-03-30T01:58:22.342Z,59.33
2023-03-30T02:00:56.054Z,59.06
2023-03-30T02:03:29.476Z,59.06
2023-03-30T02:06:04.190Z,59.19
2023-03-30T02:08:34.886Z,59.44
2023-03-30T02:11:04.907Z,59.54
2023-03-30T02:13:35.800Z,59.31
2023-03-30T02:16:10.042Z,59.07
2023-03-30T02:18:38.860Z,59.17
2023-03-30T02:21:10.104Z,59.20
2023-03-30T02:23:41.232Z,59.09
2023-03-30T02:26:10.613Z,59.13
2023-03-30T02:28:42.613Z,59.64
2023-03-30T02:31:14.664Z,59.27
2023-03-30T02:34:02.782Z,59.38
2023-03-30T02:36:43.730Z,59.95
2023-03-30T02:39:27.298Z,60.00
2023-03-30T02:42:21.552Z,60.02
2023-03-30T02:45:09.154Z,59.75
2023-03-30T02:47:54.305Z,59.71
2023-03-30T02:50:29.374Z,59.62
2023-03-30T02:53:23.504Z,59.74
2023-03-30T02:56:06.812Z,60.19
2023-03-30T02:58:50.134Z,60.32
2023-03-30T03:01:23.769Z,60.32
2023-03-30T03:04:00.574Z,60.57
2023-03-30T03:06:34.033Z,60.52
2023-03-30T03:09:03.516Z,60.27
2023-03-30T03:11:32.911Z,59.92
2023-03-30T03:14:01.466Z,59.76
2023-03-30T03:16:31.862Z,59.51
2023-03-30T03:19:09.942Z,59.35
2023-03-30T03:21:45.542Z,59.05
2023-03-30T03:24:17.384Z,59.10
2023-03-30T03:27:16.452Z,59.27
2023-03-30T03:30:05.785Z,58.86
2023-03-30T03:32:40.742Z,58.88
2023-03-30T03:35:09.566Z,58.98
2023-03-30T03:37:37.905Z,59.25
2023-03-30T03:40:08.228Z,59.12
2023-03-30T03:42:36.898Z,59.42
2023-03-30T03:45:13.837Z,59.46
2023-03-30T03:47:57.209Z,59.42
2023-03-30T03:50:45.673Z,59.61
2023-03-30T03:53:15.125Z,60.01
2023-03-30T03:55:44.139Z,60.26
2023-03-30T03:58:16.850Z,60.26
2023-03-30T04:00:46.598Z,60.49
2023-03-30T04:03:19.048Z,60.38
2023-03-30T04:05:49.921Z,60.21
2023-03-30T04:08:18.345Z,60.11
2023-03-30T04:10:47.478Z,60.25
2023-03-30T04:13:19.626Z,60.61
2023-03-30T04:16:08.889Z,60.61
2023-03-30T04:19:03.955Z,60.34
2023-03-30T04:21:53.109Z,60.00
2023-03-30T04:24:39.764Z,59.92
2023-03-30T04:27:28.784Z,60.06
2023-03-30T04:30:33.204Z,59.93
2023-03-30T04:33:21.369Z,60.09
2023-03-30T04:36:07.273Z,60.24
2023-03-30T04:39:01.661Z,60.25
2023-03-30T04:42:08.364Z,60.10
2023-03-30T04:44:58.853Z,60.17
2023-03-30T04:47:50.922Z,60.09
2023-03-30T04:50:25.426Z,60.16
2023-03-30T04:53:24.847Z,60.40
2023-03-30T04:56:19.418Z,60.42
2023-03-30T04:59:26.278Z,59.96
2023-03-30T05:02:27.283Z,59.58
2023-03-30T05:05:16.667Z,59.50
2023-03-30T05:08:03.618Z,59.45
2023-03-30T05:10:50.348Z,59.51
2023-03-30T05:13:31.744Z,59.75
2023-03-30T05:16:18.639Z,59.76
2023-03-30T05:19:17.551Z,59.74
2023-03-30T05:22:07.311Z,59.61
2023-03-30T05:24:58.912Z,59.08
2023-03-30T05:27:46.273Z,58.77
2023-03-30T05:30:38.130Z,58.58
2023-03-30T05:33:14.117Z,58.23
2023-03-30T05:36:20.858Z,57.80
2023-03-30T05:41:40.677Z,56.86
2023-03-30T05:44:33.249Z,56.54
2023-03-30T05:47:22.198Z,56.08
2023-03-30T05:50:18.012Z,55.31
2023-03-30T05:53:00.563Z,55.54
2023-03-30T05:55:49.337Z,54.82
2023-03-30T05:58:38.696Z,54.96
2023-03-30T06:01:09.585Z,54.72
2023-03-30T06:03:42.432Z,54.49
2023-03-30T06:06:12.373Z,54.49
2023-03-30T06:08:42.120Z,54.24
2023-03-30T06:11:13.845Z,53.71
2023-03-30T06:13:46.803Z,52.07
2023-03-30T06:16:18.565Z,52.25
2023-03-30T06:18:47.617Z,52.20
2023-03-30T06:21:16.462Z,50.84
2023-03-30T06:24:07.884Z,50.03
2023-03-30T06:26:39.242Z,50.15
2023-03-30T06:29:08.951Z,49.47
2023-03-30T06:31:37.813Z,49.46
2023-03-30T06:34:44.594Z,50.27
2023-03-30T06:37:14.319Z,49.78
2023-03-30T06:39:42.599Z,48.25
2023-03-30T06:42:12.223Z,47.86
2023-03-30T06:45:19.660Z,48.33
2023-03-30T06:50:36.979Z,46.39
2023-03-30T06:53:14.971Z,46.15
2023-03-30T06:55:48.167Z,46.81
2023-03-30T06:58:27.434Z,46.91
2023-03-30T07:00:57.727Z,45.74
2023-03-30T07:03:32.175Z,44.94
2023-03-30T07:06:09.710Z,44.75
2023-03-30T07:08:40.531Z,44.03
2023-03-30T07:11:10.181Z,43.98
2023-03-30T07:13:45.466Z,44.34
2023-03-30T07:16:13.908Z,44.06
2023-03-30T07:18:44.760Z,42.90
2023-03-30T07:21:14.101Z,43.15
2023-03-30T07:23:45.865Z,43.42
2023-03-30T07:26:32.147Z,43.31
2023-03-30T07:29:06.895Z,43.57
2023-03-30T07:31:38.570Z,43.26
2023-03-30T07:34:07.898Z,41.56
2023-03-30T07:36:40.081Z,41.89
2023-03-30T07:39:11.351Z,42.68
2023-03-30T07:41:41.588Z,41.87
2023-03-30T07:44:09.824Z,41.23
2023-03-30T07:46:41.654Z,41.01
2023-03-30T07:49:14.249Z,40.28
2023-03-30T07:51:43.633Z,40.18
2023-03-30T07:54:21.025Z,39.37
2023-03-30T07:57:14.906Z,39.99
2023-03-30T07:59:44.112Z,39.82
2023-03-30T08:02:31.922Z,39.86
2023-03-30T08:05:05.093Z,39.00
2023-03-30T08:07:47.936Z,38.57
2023-03-30T08:10:22.513Z,38.41
2023-03-30T08:12:51.752Z,38.14
2023-03-30T08:15:21.105Z,36.47
2023-03-30T08:17:49.512Z,35.37
2023-03-30T08:20:20.536Z,35.27
2023-03-30T08:22:49.104Z,34.89
2023-03-30T08:25:17.752Z,35.23
2023-03-30T08:27:47.612Z,35.18
2023-03-30T08:30:16.626Z,35.16
2023-03-30T08:32:46.607Z,35.19
2023-03-30T08:35:16.074Z,34.90
2023-03-30T08:37:45.069Z,33.16
2023-03-30T08:40:15.447Z,32.19
2023-03-30T08:42:52.015Z,31.04
2023-03-30T08:45:25.275Z,32.09
2023-03-30T08:47:53.660Z,30.71
2023-03-30T08:50:32.409Z,30.12
2023-03-30T08:53:03.948Z,30.30
2023-03-30T08:55:37.304Z,30.90
2023-03-30T08:58:40.479Z,30.87
2023-03-30T09:01:38.106Z,29.93
2023-03-30T09:04:17.852Z,30.84
2023-03-30T09:06:51.462Z,30.26
2023-03-30T09:09:21.463Z,30.94
2023-03-30T09:12:08.887Z,28.92
2023-03-30T09:14:42.163Z,29.25
2023-03-30T09:17:23.275Z,29.91
2023-03-30T09:19:57.236Z,29.84
2023-03-30T09:22:30.076Z,29.91
2023-03-30T09:25:05.749Z,30.02
2023-03-30T09:28:12.409Z,29.93
2023-03-30T09:30:47.136Z,28.73
2023-03-30T09:33:30.026Z,29.12
2023-03-30T09:36:13.229Z,29.78
2023-03-30T09:38:43.338Z,30.23
2023-03-30T09:41:34.325Z,30.54
2023-03-30T09:44:11.551Z,30.25
2023-03-30T09:46:40.595Z,29.21
2023-03-30T09:49:16.043Z,29.84
2023-03-30T09:51:53.940Z,29.82
2023-03-30T09:54:22.352Z,27.81
2023-03-30T09:56:54.361Z,28.56
2023-03-30T09:59:37.414Z,28.78
2023-03-30T10:02:28.004Z,28.07
2023-03-30T10:04:58.607Z,28.19
2023-03-30T10:07:48.100Z,28.75
2023-03-30T10:10:26.637Z,28.94
2023-03-30T10:13:15.133Z,28.06
2023-03-30T10:15:45.123Z,28.16
2023-03-30T10:18:15.863Z,28.62
2023-03-30T10:20:54.652Z,28.64
2023-03-30T10:23:24.984Z,28.73
2023-03-30T10:25:54.771Z,28.48
2023-03-30T10:28:27.364Z,29.00
2023-03-30T10:31:07.153Z,28.99
2023-03-30T10:33:40.926Z,28.85
2023-03-30T10:36:09.810Z,27.76
2023-03-30T10:38:40.455Z,28.27
2023-03-30T10:41:11.395Z,29.40
2023-03-30T10:43:41.387Z,29.09
2023-03-30T10:46:20.475Z,29.14
2023-03-30T10:49:22.169Z,29.47
2023-03-30T10:51:57.750Z,28.55
2023-03-30T10:54:31.574Z,29.05
2023-03-30T10:58:49.578Z,28.74
2023-03-30T11:01:28.323Z,28.82
2023-03-30T11:04:09.419Z,28.81
2023-03-30T11:06:49.100Z,28.72
2023-03-30T11:09:20.096Z,28.20
2023-03-30T11:11:52.865Z,28.03
2023-03-30T11:14:37.879Z,28.87
2023-03-30T11:17:11.588Z,28.32
2023-03-30T11:20:17.040Z,28.25
2023-03-30T11:22:54.930Z,29.63
2023-03-30T11:25:26.124Z,28.33
2023-03-30T11:28:41.177Z,28.08
2023-03-30T11:31:17.802Z,28.47
2023-03-30T11:34:17.993Z,29.56
2023-03-30T11:36:56.020Z,29.98
2023-03-30T11:39:32.645Z,29.64
2023-03-30T11:42:07.517Z,30.07
2023-03-30T11:44:37.527Z,30.73
2023-03-30T11:47:28.600Z,30.08
2023-03-30T11:50:02.555Z,29.62
2023-03-30T11:52:46.870Z,30.07
2023-03-30T11:55:33.013Z,30.50
2023-03-30T11:58:23.843Z,30.51
2023-03-30T12:00:54.110Z,30.53
2023-03-30T12:03:30.521Z,31.05
2023-03-30T12:06:24.693Z,30.51
2023-03-30T12:09:09.690Z,31.09
2023-03-30T12:12:29.453Z,30.50
2023-03-30T12:15:18.155Z,30.06
2023-03-30T12:18:00.023Z,30.80
2023-03-30T12:20:34.128Z,30.25
2023-03-30T12:23:29.741Z,30.77
2023-03-30T12:26:27.318Z,30.70
2023-03-30T12:29:44.325Z,30.30
2023-03-30T12:31:59.244Z,30.92
2023-03-30T12:34:28.684Z,30.96
2023-03-30T12:37:05.978Z,31.54
2023-03-30T12:40:06.261Z,31.64
2023-03-30T12:42:47.071Z,31.18
2023-03-30T12:45:15.538Z,31.87
2023-03-30T12:48:18.741Z,32.22
2023-03-30T12:51:10.722Z,31.67
2023-03-30T12:54:02.388Z,31.75
2023-03-30T12:57:07.732Z,31.37
2023-03-30T12:59:56.905Z,31.74
2023-03-30T13:02:46.749Z,32.00
2023-03-30T13:05:24.227Z,32.59
2023-03-30T13:07:54.863Z,32.80
2023-03-30T13:10:29.155Z,32.43
2023-03-30T13:12:58.310Z,32.40
2023-03-30T13:15:33.942Z,33.12
2023-03-30T13:18:04.502Z,33.22
2023-03-30T13:20:37.706Z,33.27
2023-03-30T13:23:12.656Z,33.30
2023-03-30T13:25:47.568Z,33.48
2023-03-30T13:28:54.934Z,32.65
2023-03-30T13:31:34.496Z,33.41
2023-03-30T13:34:20.436Z,33.32
2023-03-30T13:37:09.482Z,33.20
2023-03-30T13:39:42.388Z,33.05
2023-03-30T13:42:23.481Z,33.27
2023-03-30T13:45:13.070Z,33.66
2023-03-30T13:48:14.537Z,34.28
2023-03-30T13:50:56.073Z,33.99
2023-03-30T13:53:26.401Z,33.31
2023-03-30T13:55:54.579Z,33.31
2023-03-30T13:58:28.523Z,33.61
2023-03-30T14:01:07.752Z,33.75
2023-03-30T14:03:39.327Z,34.09
2023-03-30T14:06:15.453Z,33.63
2023-03-30T14:08:46.395Z,33.57
2023-03-30T14:11:22.732Z,33.72
2023-03-30T14:13:54.978Z,34.11
2023-03-30T14:16:25.112Z,34.12
2023-03-30T14:19:25.831Z,34.42
2023-03-30T14:21:58.315Z,34.67
2023-03-30T14:24:29.050Z,34.69
2023-03-30T14:27:13.930Z,34.49
2023-03-30T14:29:46.492Z,34.51
2023-03-30T14:32:16.036Z,34.51
2023-03-30T14:34:49.185Z,34.49
2023-03-30T14:37:21.175Z,34.49
2023-03-30T14:39:54.672Z,34.42
2023-03-30T14:42:27.672Z,34.57
2023-03-30T14:44:59.466Z,34.63
2023-03-30T14:47:28.053Z,34.56
2023-03-30T14:49:58.424Z,34.92
2023-03-30T14:52:53.122Z,34.91
2023-03-30T14:55:25.923Z,34.93
2023-03-30T14:57:56.055Z,34.91
2023-03-30T15:00:24.946Z,35.19
2023-03-30T15:02:55.637Z,35.46
2023-03-30T15:05:25.230Z,35.17
2023-03-30T15:07:59.377Z,35.41
2023-03-30T15:10:55.506Z,35.66
2023-03-30T15:13:34.505Z,35.49
2023-03-30T15:16:03.600Z,35.54
2023-03-30T15:18:41.829Z,35.50
2023-03-30T15:21:11.270Z,35.45
2023-03-30T15:23:41.130Z,35.55
2023-03-30T15:26:10.034Z,35.70
2023-03-30T15:28:47.553Z,35.91
2023-03-30T15:31:18.723Z,35.87
2023-03-30T15:33:54.131Z,36.03
2023-03-30T15:36:23.945Z,36.01
2023-03-30T15:38:59.223Z,35.98
2023-03-30T15:41:45.234Z,36.08
2023-03-30T15:44:21.306Z,36.23
2023-03-30T15:46:50.640Z,36.38
2023-03-30T15:49:23.420Z,36.67
2023-03-30T15:52:02.064Z,36.77
2023-03-30T15:54:34.661Z,36.88
2023-03-30T15:57:09.997Z,36.86
2023-03-30T15:59:49.444Z,36.99
2023-03-30T16:02:31.245Z,37.33
2023-03-30T16:05:03.307Z,37.45
2023-03-30T16:07:31.974Z,37.44
2023-03-30T16:10:06.098Z,37.57
2023-03-30T16:12:41.688Z,37.81
2023-03-30T16:15:16.966Z,37.90
2023-03-30T16:17:45.538Z,37.99
2023-03-30T16:20:15.728Z,38.09
2023-03-30T16:22:44.207Z,38.28
2023-03-30T16:25:12.421Z,38.43
2023-03-30T16:27:40.803Z,38.63
2023-03-30T16:30:37.787Z,38.63
2023-03-30T16:33:07.471Z,38.73
2023-03-30T16:35:35.952Z,38.82
2023-03-30T16:38:04.931Z,38.98
2023-03-30T16:40:34.934Z,38.91
2023-03-30T16:43:03.840Z,39.11
2023-03-30T16:45:32.487Z,39.25
2023-03-30T16:48:04.341Z,39.37
2023-03-30T16:50:43.764Z,39.56
2023-03-30T16:53:12.714Z,39.81
2023-03-30T16:55:41.127Z,39.88
2023-03-30T16:58:17.242Z,39.94
2023-03-30T17:00:51.274Z,39.97
2023-03-30T17:03:20.548Z,40.11
2023-03-30T17:05:53.636Z,40.21
2023-03-30T17:08:24.924Z,40.41
2023-03-30T17:10:54.742Z,40.51
2023-03-30T17:13:29.304Z,40.21
2023-03-30T17:16:17.313Z,40.41
2023-03-30T17:18:47.445Z,40.67
2023-03-30T17:21:18.471Z,40.67
2023-03-30T17:23:48.106Z,40.70
2023-03-30T17:26:17.163Z,40.76
2023-03-30T17:28:46.090Z,40.88
2023-03-30T17:31:22.198Z,40.98
2023-03-30T17:33:51.030Z,40.96
2023-03-30T17:36:22.920Z,41.10
2023-03-30T17:38:51.772Z,41.21
2023-03-30T17:41:20.389Z,41.22
2023-03-30T17:43:48.847Z,41.22
2023-03-30T17:46:18.347Z,41.21
2023-03-30T17:48:46.901Z,41.19
2023-03-30T17:51:15.560Z,41.30
2023-03-30T17:53:43.728Z,41.40
2023-03-30T17:56:13.085Z,41.61
2023-03-30T17:58:43.945Z,41.45
2023-03-30T18:01:12.977Z,41.44
2023-03-30T18:03:42.709Z,41.73
2023-03-30T18:06:11.719Z,41.91
2023-03-30T18:08:39.810Z,41.93
2023-03-30T18:11:08.101Z,42.10
2023-03-30T18:13:37.148Z,42.30
2023-03-30T18:16:06.221Z,42.36
2023-03-30T18:18:34.566Z,42.37
2023-03-30T18:21:04.526Z,42.54
2023-03-30T18:23:37.397Z,42.49
2023-03-30T18:26:11.114Z,42.39
2023-03-30T18:28:43.992Z,42.82
2023-03-30T18:31:12.943Z,42.96
2023-03-30T18:33:41.515Z,43.05
2023-03-30T18:36:13.491Z,43.23
2023-03-30T18:38:42.460Z,43.29
2023-03-30T18:41:13.057Z,43.11
2023-03-30T18:43:41.297Z,43.39
2023-03-30T18:46:11.251Z,43.43
2023-03-30T18:48:41.823Z,43.55
2023-03-30T18:51:11.847Z,43.70
2023-03-30T18:53:42.792Z,43.65
2023-03-30T18:56:11.704Z,43.78
2023-03-30T18:58:42.381Z,43.88
2023-03-30T19:01:16.129Z,43.85
2023-03-30T19:03:45.944Z,43.91
2023-03-30T19:06:17.014Z,43.77
2023-03-30T19:08:49.343Z,43.64
2023-03-30T19:11:21.915Z,43.90
2023-03-30T19:13:50.244Z,43.90
2023-03-30T19:16:22.456Z,44.21
2023-03-30T19:18:51.082Z,44.18
2023-03-30T19:21:19.586Z,44.32
2023-03-30T19:23:48.028Z,44.45
2023-03-30T19:26:16.863Z,44.74
2023-03-30T19:28:47.723Z,44.92
2023-03-30T19:31:16.603Z,44.94
2023-03-30T19:33:45.111Z,45.09
2023-03-30T19:36:14.181Z,45.14
2023-03-30T19:38:44.247Z,45.28
2023-03-30T19:44:08.695Z,45.57
2023-03-30T19:46:38.828Z,45.61
2023-03-30T19:49:07.096Z,45.82
2023-03-30T19:51:35.543Z,46.08
2023-03-30T19:54:08.857Z,46.18
2023-03-30T19:56:37.818Z,46.36
2023-03-30T19:59:08.209Z,46.67
2023-03-30T20:01:38.616Z,47.06
2023-03-30T20:04:07.501Z,47.20
2023-03-30T20:06:36.021Z,47.45
2023-03-30T20:09:07.742Z,47.64
2023-03-30T20:11:36.688Z,47.87
2023-03-30T20:14:04.913Z,48.24
2023-03-30T20:16:35.450Z,48.34
2023-03-30T20:19:12.881Z,48.47
2023-03-30T20:21:49.306Z,48.53
2023-03-30T20:24:17.410Z,48.57
2023-03-30T20:26:45.727Z,48.55
2023-03-30T20:29:14.452Z,48.91
2023-03-30T20:31:42.926Z,48.86
2023-03-30T20:34:13.086Z,48.64
2023-03-30T20:36:42.945Z,48.87
2023-03-30T20:39:14.165Z,49.01
2023-03-30T20:41:42.873Z,49.17
2023-03-30T20:44:14.026Z,49.42
2023-03-30T20:46:43.635Z,49.50
2023-03-30T20:49:12.159Z,49.62
2023-03-30T20:51:43.385Z,49.81
2023-03-30T20:54:11.902Z,49.77
2023-03-30T20:56:41.591Z,49.91
2023-03-30T20:59:09.767Z,49.77
2023-03-30T21:01:41.688Z,49.87
2023-03-30T21:04:10.633Z,50.05
2023-03-30T21:06:38.797Z,50.09
2023-03-30T21:09:10.107Z,49.93
2023-03-30T21:11:41.414Z,50.34
2023-03-30T21:14:12.579Z,50.26
2023-03-30T21:16:59.344Z,50.47
2023-03-30T21:19:27.502Z,50.44
2023-03-30T21:21:55.653Z,50.71
2023-03-30T21:24:24.907Z,50.94
2023-03-30T21:26:53.518Z,50.83
2023-03-30T21:29:23.814Z,50.80
2023-03-30T21:31:52.107Z,50.94
2023-03-30T21:34:22.251Z,50.97
2023-03-30T21:36:50.884Z,51.19
2023-03-30T21:39:19.636Z,51.24
2023-03-30T21:41:47.915Z,51.32
2023-03-30T21:44:16.156Z,51.32
2023-03-30T21:46:44.420Z,51.32
2023-03-30T21:49:12.800Z,51.25
2023-03-30T21:51:41.845Z,51.16
2023-03-30T21:54:11.827Z,51.28
2023-03-30T21:56:39.940Z,51.31
2023-03-30T21:59:08.063Z,51.29
2023-03-30T22:01:36.265Z,51.36
2023-03-30T22:04:06.310Z,51.41
2023-03-30T22:06:35.541Z,51.36
2023-03-30T22:09:03.893Z,51.28
2023-03-30T22:11:32.015Z,51.46
2023-03-30T22:14:03.986Z,51.20
2023-03-30T22:16:35.136Z,51.18
2023-03-30T22:19:13.544Z,51.21
2023-03-30T22:21:42.507Z,51.18
2023-03-30T22:24:11.282Z,51.12
2023-03-30T22:26:40.780Z,51.14
2023-03-30T22:29:09.053Z,51.07
2023-03-30T22:31:41.303Z,50.95
2023-03-30T22:34:10.171Z,50.97
2023-03-30T22:36:38.353Z,50.94
2023-03-30T22:39:07.012Z,51.00
2023-03-30T22:41:35.134Z,51.11
2023-03-30T22:44:03.482Z,51.03
2023-03-30T22:46:31.938Z,51.04
2023-03-30T22:49:00.294Z,51.03
2023-03-30T22:51:28.967Z,51.04
2023-03-30T22:53:58.753Z,50.95
2023-03-30T22:56:33.328Z,51.14
2023-03-30T22:59:02.147Z,51.05
2023-03-30T23:01:32.666Z,51.00
2023-03-30T23:04:05.021Z,51.11
2023-03-30T23:06:34.472Z,51.11
2023-03-30T23:09:04.318Z,51.22
2023-03-30T23:11:34.409Z,51.19
2023-03-30T23:26:03.248Z,49.79
2023-03-30T23:28:32.108Z,49.27
2023-03-30T23:31:08.563Z,49.32
2023-03-30T23:33:36.980Z,49.54
2023-03-30T23:36:09.540Z,49.50
2023-03-30T23:38:40.716Z,49.40
2023-03-30T23:41:09.010Z,49.79
2023-03-30T23:43:37.092Z,50.25
2023-03-30T23:46:05.466Z,50.45
2023-03-30T23:48:34.058Z,50.58
2023-03-30T23:51:02.680Z,51.12
2023-03-30T23:53:30.918Z,51.45
2023-03-30T23:55:59.895Z,51.72
2023-03-30T23:58:28.141Z,51.84
